sensor_id;sensor_type;location;lat;lon;timestamp;pressure;altitude;pressure_sealevel;temperature;humidity
50103;BME280;35993;52.604;10.078;2023-04-26T00:01:17;101163.25;;;3.42;94.61
50103;BME280;35993;52.604;10.078;2023-04-26T00:03:42;101163.19;;;3.34;95.33
50103;BME280;35993;52.604;10.078;2023-04-26T00:06:08;101170.50;;;3.50;95.35
50103;BME280;35993;52.604;10.078;2023-04-26T00:08:35;101171.13;;;3.43;94.82
50103;BME280;35993;52.604;10.078;2023-04-26T00:11:00;101173.41;;;3.30;95.39
50103;BME280;35993;52.604;10.078;2023-04-26T00:13:26;101168.91;;;3.39;96.12
50103;BME280;35993;52.604;10.078;2023-04-26T00:15:51;101174.63;;;3.36;96.36
50103;BME280;35993;52.604;10.078;2023-04-26T00:18:17;101170.75;;;3.30;96.17
50103;BME280;35993;52.604;10.078;2023-04-26T00:20:43;101170.28;;;3.17;96.90
50103;BME280;35993;52.604;10.078;2023-04-26T00:23:08;101172.34;;;3.23;97.32
50103;BME280;35993;52.604;10.078;2023-04-26T00:25:35;101169.13;;;3.19;97.15
50103;BME280;35993;52.604;10.078;2023-04-26T00:28:01;101173.69;;;3.19;97.47
50103;BME280;35993;52.604;10.078;2023-04-26T00:30:27;101172.16;;;3.16;97.27
50103;BME280;35993;52.604;10.078;2023-04-26T00:32:53;101177.69;;;3.15;97.31
50103;BME280;35993;52.604;10.078;2023-04-26T00:35:19;101175.47;;;3.10;98.00
50103;BME280;35993;52.604;10.078;2023-04-26T00:37:44;101176.25;;;3.02;98.22
50103;BME280;35993;52.604;10.078;2023-04-26T00:40:11;101169.63;;;2.97;98.26
50103;BME280;35993;52.604;10.078;2023-04-26T00:42:39;101177.19;;;2.93;99.02
50103;BME280;35993;52.604;10.078;2023-04-26T00:45:06;101175.78;;;2.89;99.43
50103;BME280;35993;52.604;10.078;2023-04-26T00:47:32;101169.91;;;2.85;99.26
50103;BME280;35993;52.604;10.078;2023-04-26T00:49:58;101174.91;;;2.80;99.78
50103;BME280;35993;52.604;10.078;2023-04-26T00:52:25;101174.19;;;2.78;100.00
50103;BME280;35993;52.604;10.078;2023-04-26T00:54:52;101168.28;;;2.74;100.00
50103;BME280;35993;52.604;10.078;2023-04-26T00:57:18;101166.06;;;2.70;100.00
50103;BME280;35993;52.604;10.078;2023-04-26T00:59:44;101170.19;;;2.82;100.00
50103;BME280;35993;52.604;10.078;2023-04-26T01:02:10;101172.56;;;2.67;100.00
50103;BME280;35993;52.604;10.078;2023-04-26T01:04:35;101175.03;;;2.60;100.00
50103;BME280;35993;52.604;10.078;2023-04-26T01:07:02;101182.25;;;2.60;100.00
50103;BME280;35993;52.604;10.078;2023-04-26T01:09:30;101176.34;;;2.56;100.00
50103;BME280;35993;52.604;10.078;2023-04-26T01:11:59;101183.00;;;2.52;100.00
50103;BME280;35993;52.604;10.078;2023-04-26T01:14:25;101183.31;;;2.49;100.00
50103;BME280;35993;52.604;10.078;2023-04-26T01:16:52;101189.38;;;2.51;100.00
50103;BME280;35993;52.604;10.078;2023-04-26T01:19:17;101190.34;;;2.50;100.00
50103;BME280;35993;52.604;10.078;2023-04-26T01:21:44;101178.72;;;2.41;100.00
50103;BME280;35993;52.604;10.078;2023-04-26T01:24:11;101181.00;;;2.36;100.00
50103;BME280;35993;52.604;10.078;2023-04-26T01:26:38;101193.03;;;2.32;100.00
50103;BME280;35993;52.604;10.078;2023-04-26T01:29:19;101182.69;;;2.37;100.00
50103;BME280;35993;52.604;10.078;2023-04-26T01:31:46;101181.16;;;2.35;100.00
50103;BME280;35993;52.604;10.078;2023-04-26T01:34:13;101192.69;;;2.35;100.00
50103;BME280;35993;52.604;10.078;2023-04-26T01:36:39;101190.50;;;2.31;100.00
50103;BME280;35993;52.604;10.078;2023-04-26T01:39:05;101194.31;;;2.28;100.00
50103;BME280;35993;52.604;10.078;2023-04-26T01:41:30;101196.41;;;2.34;100.00
50103;BME280;35993;52.604;10.078;2023-04-26T01:43:59;101190.66;;;2.29;100.00
50103;BME280;35993;52.604;10.078;2023-04-26T01:46:25;101196.41;;;2.34;100.00
50103;BME280;35993;52.604;10.078;2023-04-26T01:48:51;101200.63;;;2.37;100.00
50103;BME280;35993;52.604;10.078;2023-04-26T01:51:16;101199.38;;;2.31;100.00
50103;BME280;35993;52.604;10.078;2023-04-26T01:53:42;101200.88;;;2.16;100.00
50103;BME280;35993;52.604;10.078;2023-04-26T01:56:08;101190.91;;;2.08;100.00
50103;BME280;35993;52.604;10.078;2023-04-26T01:58:36;101193.81;;;2.15;100.00
50103;BME280;35993;52.604;10.078;2023-04-26T02:01:06;101199.19;;;2.15;100.00
50103;BME280;35993;52.604;10.078;2023-04-26T02:03:32;101196.97;;;2.10;100.00
50103;BME280;35993;52.604;10.078;2023-04-26T02:05:57;101195.13;;;2.10;100.00
50103;BME280;35993;52.604;10.078;2023-04-26T02:08:25;101197.72;;;2.02;100.00
50103;BME280;35993;52.604;10.078;2023-04-26T02:10:50;101196.25;;;2.08;100.00
50103;BME280;35993;52.604;10.078;2023-04-26T02:13:16;101203.16;;;2.10;100.00
50103;BME280;35993;52.604;10.078;2023-04-26T02:15:45;101201.03;;;2.14;100.00
50103;BME280;35993;52.604;10.078;2023-04-26T02:18:11;101188.38;;;2.06;100.00
50103;BME280;35993;52.604;10.078;2023-04-26T02:20:40;101194.88;;;2.04;100.00
50103;BME280;35993;52.604;10.078;2023-04-26T02:23:08;101199.69;;;2.00;100.00
50103;BME280;35993;52.604;10.078;2023-04-26T02:25:34;101191.34;;;2.03;100.00
50103;BME280;35993;52.604;10.078;2023-04-26T02:27:59;101197.16;;;1.99;100.00
50103;BME280;35993;52.604;10.078;2023-04-26T02:30:26;101195.47;;;1.98;100.00
50103;BME280;35993;52.604;10.078;2023-04-26T02:32:53;101195.47;;;1.98;100.00
50103;BME280;35993;52.604;10.078;2023-04-26T02:35:19;101197.00;;;2.00;100.00
50103;BME280;35993;52.604;10.078;2023-04-26T02:37:44;101192.63;;;1.99;100.00
50103;BME280;35993;52.604;10.078;2023-04-26T02:40:14;101195.28;;;2.09;100.00
50103;BME280;35993;52.604;10.078;2023-04-26T02:42:40;101201.69;;;2.16;100.00
50103;BME280;35993;52.604;10.078;2023-04-26T02:45:06;101201.84;;;2.15;100.00
50103;BME280;35993;52.604;10.078;2023-04-26T02:47:32;101200.78;;;2.07;100.00
50103;BME280;35993;52.604;10.078;2023-04-26T02:50:01;101200.25;;;2.04;100.00
50103;BME280;35993;52.604;10.078;2023-04-26T02:52:29;101196.66;;;2.13;100.00
50103;BME280;35993;52.604;10.078;2023-04-26T02:54:54;101199.50;;;2.11;100.00
50103;BME280;35993;52.604;10.078;2023-04-26T02:57:20;101210.59;;;2.17;100.00
50103;BME280;35993;52.604;10.078;2023-04-26T02:59:45;101202.13;;;2.21;100.00
50103;BME280;35993;52.604;10.078;2023-04-26T03:02:11;101199.97;;;2.25;100.00
50103;BME280;35993;52.604;10.078;2023-04-26T03:04:37;101201.97;;;2.23;100.00
50103;BME280;35993;52.604;10.078;2023-04-26T03:07:03;101205.47;;;2.23;100.00
50103;BME280;35993;52.604;10.078;2023-04-26T03:09:29;101199.84;;;2.26;100.00
50103;BME280;35993;52.604;10.078;2023-04-26T03:11:55;101202.34;;;2.28;100.00
50103;BME280;35993;52.604;10.078;2023-04-26T03:14:21;101200.50;;;2.28;100.00
50103;BME280;35993;52.604;10.078;2023-04-26T03:16:47;101198.59;;;2.21;100.00
50103;BME280;35993;52.604;10.078;2023-04-26T03:19:13;101197.91;;;2.19;100.00
50103;BME280;35993;52.604;10.078;2023-04-26T03:21:39;101194.22;;;2.20;100.00
50103;BME280;35993;52.604;10.078;2023-04-26T03:24:05;101193.38;;;2.19;100.00
50103;BME280;35993;52.604;10.078;2023-04-26T03:26:32;101197.75;;;2.20;100.00
50103;BME280;35993;52.604;10.078;2023-04-26T03:28:58;101190.91;;;2.08;100.00
50103;BME280;35993;52.604;10.078;2023-04-26T03:31:23;101192.19;;;2.04;100.00
50103;BME280;35993;52.604;10.078;2023-04-26T03:33:50;101196.78;;;1.93;100.00
50103;BME280;35993;52.604;10.078;2023-04-26T03:36:16;101199.31;;;1.85;100.00
50103;BME280;35993;52.604;10.078;2023-04-26T03:38:42;101195.81;;;1.85;100.00
50103;BME280;35993;52.604;10.078;2023-04-26T03:41:08;101199.59;;;1.92;100.00
50103;BME280;35993;52.604;10.078;2023-04-26T03:43:34;101195.38;;;1.89;100.00
50103;BME280;35993;52.604;10.078;2023-04-26T03:45:59;101190.31;;;1.86;100.00
50103;BME280;35993;52.604;10.078;2023-04-26T03:48:25;101194.50;;;1.99;100.00
50103;BME280;35993;52.604;10.078;2023-04-26T03:50:52;101199.09;;;2.06;100.00
50103;BME280;35993;52.604;10.078;2023-04-26T03:53:18;101193.19;;;2.03;100.00
50103;BME280;35993;52.604;10.078;2023-04-26T03:55:43;101187.41;;;2.07;100.00
50103;BME280;35993;52.604;10.078;2023-04-26T03:58:09;101193.59;;;2.08;100.00
50103;BME280;35993;52.604;10.078;2023-04-26T04:00:39;101200.09;;;2.05;100.00
50103;BME280;35993;52.604;10.078;2023-04-26T04:03:05;101193.09;;;1.94;100.00
50103;BME280;35993;52.604;10.078;2023-04-26T04:05:31;101207.31;;;1.95;100.00
50103;BME280;35993;52.604;10.078;2023-04-26T04:07:57;101202.38;;;2.00;100.00
50103;BME280;35993;52.604;10.078;2023-04-26T04:10:23;101201.38;;;2.01;100.00
50103;BME280;35993;52.604;10.078;2023-04-26T04:12:49;101191.81;;;1.99;100.00
50103;BME280;35993;52.604;10.078;2023-04-26T04:15:15;101200.81;;;1.98;100.00
50103;BME280;35993;52.604;10.078;2023-04-26T04:17:45;101205.59;;;2.04;100.00
50103;BME280;35993;52.604;10.078;2023-04-26T04:20:11;101200.16;;;2.13;100.00
50103;BME280;35993;52.604;10.078;2023-04-26T04:22:38;101194.53;;;2.17;100.00
50103;BME280;35993;52.604;10.078;2023-04-26T04:25:07;101210.16;;;2.21;100.00
50103;BME280;35993;52.604;10.078;2023-04-26T04:27:37;101208.00;;;2.25;100.00
50103;BME280;35993;52.604;10.078;2023-04-26T04:30:04;101210.41;;;2.28;100.00
50103;BME280;35993;52.604;10.078;2023-04-26T04:32:34;101217.19;;;2.22;100.00
50103;BME280;35993;52.604;10.078;2023-04-26T04:35:01;101220.69;;;2.05;100.00
50103;BME280;35993;52.604;10.078;2023-04-26T04:37:26;101219.22;;;2.10;100.00
50103;BME280;35993;52.604;10.078;2023-04-26T04:39:54;101219.22;;;2.10;100.00
50103;BME280;35993;52.604;10.078;2023-04-26T04:42:20;101221.19;;;2.08;100.00
50103;BME280;35993;52.604;10.078;2023-04-26T04:44:46;101224.03;;;2.07;100.00
50103;BME280;35993;52.604;10.078;2023-04-26T04:47:12;101233.84;;;2.16;100.00
50103;BME280;35993;52.604;10.078;2023-04-26T04:49:38;101235.09;;;1.94;100.00
50103;BME280;35993;52.604;10.078;2023-04-26T04:52:04;101241.16;;;1.96;100.00
50103;BME280;35993;52.604;10.078;2023-04-26T04:54:29;101240.09;;;2.07;100.00
50103;BME280;35993;52.604;10.078;2023-04-26T04:56:55;101229.63;;;2.13;100.00
50103;BME280;35993;52.604;10.078;2023-04-26T04:59:22;101229.94;;;2.10;100.00
50103;BME280;35993;52.604;10.078;2023-04-26T05:01:48;101235.25;;;2.20;100.00
50103;BME280;35993;52.604;10.078;2023-04-26T05:04:14;101231.44;;;2.23;100.00
50103;BME280;35993;52.604;10.078;2023-04-26T05:06:40;101227.50;;;2.17;100.00
50103;BME280;35993;52.604;10.078;2023-04-26T05:09:07;101228.16;;;2.29;100.00
50103;BME280;35993;52.604;10.078;2023-04-26T05:11:34;101224.38;;;2.22;100.00
50103;BME280;35993;52.604;10.078;2023-04-26T05:14:01;101228.41;;;2.08;100.00
50103;BME280;35993;52.604;10.078;2023-04-26T05:16:27;101233.66;;;2.27;100.00
50103;BME280;35993;52.604;10.078;2023-04-26T05:18:52;101239.16;;;2.54;100.00
50103;BME280;35993;52.604;10.078;2023-04-26T05:21:18;101237.94;;;2.84;100.00
50103;BME280;35993;52.604;10.078;2023-04-26T05:23:44;101248.94;;;2.63;100.00
50103;BME280;35993;52.604;10.078;2023-04-26T05:26:13;101247.13;;;2.64;100.00
50103;BME280;35993;52.604;10.078;2023-04-26T05:28:48;101250.91;;;2.43;100.00
50103;BME280;35993;52.604;10.078;2023-04-26T05:31:19;101260.44;;;2.55;100.00
50103;BME280;35993;52.604;10.078;2023-04-26T05:34:24;101255.38;;;2.52;100.00
50103;BME280;35993;52.604;10.078;2023-04-26T05:36:54;101255.00;;;2.65;100.00
50103;BME280;35993;52.604;10.078;2023-04-26T05:39:19;101256.72;;;2.84;100.00
50103;BME280;35993;52.604;10.078;2023-04-26T05:41:46;101255.09;;;2.73;100.00
50103;BME280;35993;52.604;10.078;2023-04-26T05:44:12;101252.72;;;2.70;100.00
50103;BME280;35993;52.604;10.078;2023-04-26T05:46:37;101253.78;;;2.77;100.00
50103;BME280;35993;52.604;10.078;2023-04-26T05:49:03;101260.06;;;2.86;100.00
50103;BME280;35993;52.604;10.078;2023-04-26T05:51:29;101264.38;;;2.97;100.00
50103;BME280;35993;52.604;10.078;2023-04-26T05:53:54;101263.22;;;3.18;100.00
50103;BME280;35993;52.604;10.078;2023-04-26T05:56:20;101257.38;;;3.22;100.00
50103;BME280;35993;52.604;10.078;2023-04-26T05:58:46;101262.06;;;3.20;100.00
50103;BME280;35993;52.604;10.078;2023-04-26T06:01:12;101257.16;;;3.16;100.00
50103;BME280;35993;52.604;10.078;2023-04-26T06:03:38;101264.56;;;3.40;100.00
50103;BME280;35993;52.604;10.078;2023-04-26T06:06:03;101261.50;;;3.87;100.00
50103;BME280;35993;52.604;10.078;2023-04-26T06:08:29;101260.66;;;4.13;100.00
50103;BME280;35993;52.604;10.078;2023-04-26T06:10:55;101254.25;;;4.14;100.00
50103;BME280;35993;52.604;10.078;2023-04-26T06:13:21;101257.00;;;4.31;100.00
50103;BME280;35993;52.604;10.078;2023-04-26T06:15:46;101247.09;;;4.31;100.00
50103;BME280;35993;52.604;10.078;2023-04-26T06:18:12;101254.81;;;4.26;99.86
50103;BME280;35993;52.604;10.078;2023-04-26T06:20:37;101261.34;;;4.23;100.00
50103;BME280;35993;52.604;10.078;2023-04-26T06:23:05;101253.78;;;4.27;100.00
50103;BME280;35993;52.604;10.078;2023-04-26T06:25:30;101259.34;;;4.25;99.45
50103;BME280;35993;52.604;10.078;2023-04-26T06:27:56;101255.13;;;4.23;98.83
50103;BME280;35993;52.604;10.078;2023-04-26T06:30:23;101250.59;;;4.23;99.49
50103;BME280;35993;52.604;10.078;2023-04-26T06:32:49;101260.94;;;4.10;99.13
50103;BME280;35993;52.604;10.078;2023-04-26T06:35:14;101257.78;;;4.15;99.79
50103;BME280;35993;52.604;10.078;2023-04-26T06:37:40;101260.47;;;4.15;99.08
50103;BME280;35993;52.604;10.078;2023-04-26T06:40:07;101261.66;;;4.63;99.02
50103;BME280;35993;52.604;10.078;2023-04-26T06:42:33;101255.28;;;4.81;96.85
50103;BME280;35993;52.604;10.078;2023-04-26T06:45:19;101250.28;;;5.19;95.97
50103;BME280;35993;52.604;10.078;2023-04-26T06:47:45;101259.69;;;5.15;93.13
50103;BME280;35993;52.604;10.078;2023-04-26T06:50:11;101261.69;;;5.13;93.15
50103;BME280;35993;52.604;10.078;2023-04-26T06:52:36;101271.50;;;5.38;92.72
50103;BME280;35993;52.604;10.078;2023-04-26T06:55:02;101267.09;;;5.46;92.07
50103;BME280;35993;52.604;10.078;2023-04-26T06:57:30;101261.50;;;5.64;91.52
50103;BME280;35993;52.604;10.078;2023-04-26T06:59:55;101248.06;;;5.55;88.77
50103;BME280;35993;52.604;10.078;2023-04-26T07:02:22;101262.47;;;5.79;89.11
50103;BME280;35993;52.604;10.078;2023-04-26T07:04:48;101260.09;;;6.01;88.99
50103;BME280;35993;52.604;10.078;2023-04-26T07:07:14;101258.41;;;5.91;87.67
50103;BME280;35993;52.604;10.078;2023-04-26T07:09:41;101258.75;;;5.97;87.14
50103;BME280;35993;52.604;10.078;2023-04-26T07:12:07;101260.78;;;6.03;87.61
50103;BME280;35993;52.604;10.078;2023-04-26T07:14:35;101262.41;;;6.20;86.63
50103;BME280;35993;52.604;10.078;2023-04-26T07:17:02;101269.72;;;6.43;85.77
50103;BME280;35993;52.604;10.078;2023-04-26T07:19:28;101275.63;;;6.70;85.43
50103;BME280;35993;52.604;10.078;2023-04-26T07:21:53;101270.28;;;6.93;85.20
50103;BME280;35993;52.604;10.078;2023-04-26T07:24:19;101270.34;;;6.53;84.10
50103;BME280;35993;52.604;10.078;2023-04-26T07:26:44;101271.53;;;6.51;84.59
50103;BME280;35993;52.604;10.078;2023-04-26T07:29:10;101271.50;;;6.19;84.19
50103;BME280;35993;52.604;10.078;2023-04-26T07:31:36;101279.53;;;6.36;84.51
50103;BME280;35993;52.604;10.078;2023-04-26T07:34:01;101271.44;;;6.67;83.13
50103;BME280;35993;52.604;10.078;2023-04-26T07:36:27;101272.59;;;6.73;81.68
50103;BME280;35993;52.604;10.078;2023-04-26T07:38:53;101256.25;;;6.98;79.75
50103;BME280;35993;52.604;10.078;2023-04-26T07:41:19;101250.59;;;7.08;78.61
50103;BME280;35993;52.604;10.078;2023-04-26T07:43:44;101250.41;;;7.09;77.08
50103;BME280;35993;52.604;10.078;2023-04-26T07:46:10;101253.06;;;7.17;76.79
50103;BME280;35993;52.604;10.078;2023-04-26T07:48:35;101251.09;;;7.11;76.24
50103;BME280;35993;52.604;10.078;2023-04-26T07:51:09;101248.56;;;7.48;76.24
50103;BME280;35993;52.604;10.078;2023-04-26T07:53:35;101250.19;;;7.34;74.54
50103;BME280;35993;52.604;10.078;2023-04-26T07:56:03;101253.94;;;7.33;75.16
50103;BME280;35993;52.604;10.078;2023-04-26T07:58:30;101244.38;;;7.45;74.26
50103;BME280;35993;52.604;10.078;2023-04-26T08:00:57;101243.91;;;7.57;72.80
50103;BME280;35993;52.604;10.078;2023-04-26T08:03:23;101249.47;;;7.40;72.59
50103;BME280;35993;52.604;10.078;2023-04-26T08:05:49;101258.69;;;7.31;73.74
50103;BME280;35993;52.604;10.078;2023-04-26T08:08:14;101252.09;;;7.10;72.51
50103;BME280;35993;52.604;10.078;2023-04-26T08:10:40;101245.81;;;7.56;72.43
50103;BME280;35993;52.604;10.078;2023-04-26T08:13:06;101254.69;;;8.10;71.81
50103;BME280;35993;52.604;10.078;2023-04-26T08:15:31;101245.63;;;8.02;70.12
50103;BME280;35993;52.604;10.078;2023-04-26T08:17:57;101251.97;;;7.80;72.03
50103;BME280;35993;52.604;10.078;2023-04-26T08:20:22;101260.50;;;7.53;72.27
50103;BME280;35993;52.604;10.078;2023-04-26T08:22:48;101256.38;;;7.43;72.75
50103;BME280;35993;52.604;10.078;2023-04-26T08:25:14;101260.09;;;7.03;73.23
50103;BME280;35993;52.604;10.078;2023-04-26T08:27:40;101262.97;;;7.25;72.81
50103;BME280;35993;52.604;10.078;2023-04-26T08:30:06;101258.28;;;7.72;71.63
50103;BME280;35993;52.604;10.078;2023-04-26T08:32:31;101256.44;;;8.17;71.81
50103;BME280;35993;52.604;10.078;2023-04-26T08:34:59;101245.41;;;8.49;69.17
50103;BME280;35993;52.604;10.078;2023-04-26T08:37:25;101253.03;;;8.60;68.17
50103;BME280;35993;52.604;10.078;2023-04-26T08:39:50;101239.63;;;8.52;67.54
50103;BME280;35993;52.604;10.078;2023-04-26T08:42:16;101246.91;;;8.51;67.92
50103;BME280;35993;52.604;10.078;2023-04-26T08:44:43;101250.97;;;8.77;66.70
50103;BME280;35993;52.604;10.078;2023-04-26T08:49:55;101230.91;;;8.05;63.55
50103;BME280;35993;52.604;10.078;2023-04-26T08:52:28;101230.22;;;8.18;64.33
50103;BME280;35993;52.604;10.078;2023-04-26T08:54:56;101225.31;;;7.92;63.35
50103;BME280;35993;52.604;10.078;2023-04-26T08:57:23;101234.25;;;8.07;64.84
50103;BME280;35993;52.604;10.078;2023-04-26T08:59:49;101232.66;;;7.68;64.03
50103;BME280;35993;52.604;10.078;2023-04-26T09:02:19;101238.19;;;8.04;63.80
50103;BME280;35993;52.604;10.078;2023-04-26T09:04:45;101237.53;;;8.17;63.11
50103;BME280;35993;52.604;10.078;2023-04-26T09:07:17;101236.22;;;7.98;63.71
50103;BME280;35993;52.604;10.078;2023-04-26T09:09:47;101241.59;;;8.28;62.59
50103;BME280;35993;52.604;10.078;2023-04-26T09:12:13;101242.53;;;8.35;62.76
50103;BME280;35993;52.604;10.078;2023-04-26T09:14:40;101231.34;;;8.24;62.19
50103;BME280;35993;52.604;10.078;2023-04-26T09:19:55;101233.97;;;7.87;61.45
50103;BME280;35993;52.604;10.078;2023-04-26T09:22:35;101237.06;;;7.84;61.56
50103;BME280;35993;52.604;10.078;2023-04-26T09:25:02;101245.81;;;8.01;62.55
50103;BME280;35993;52.604;10.078;2023-04-26T09:27:37;101239.16;;;8.33;61.91
50103;BME280;35993;52.604;10.078;2023-04-26T09:30:15;101235.97;;;8.45;61.24
50103;BME280;35993;52.604;10.078;2023-04-26T09:32:53;101234.59;;;8.34;60.72
50103;BME280;35993;52.604;10.078;2023-04-26T09:38:11;101233.78;;;8.03;59.75
50103;BME280;35993;52.604;10.078;2023-04-26T09:40:41;101244.59;;;8.03;60.49
50103;BME280;35993;52.604;10.078;2023-04-26T09:45:57;101246.38;;;8.78;61.53
50103;BME280;35993;52.604;10.078;2023-04-26T09:48:30;101237.28;;;8.85;60.64
50103;BME280;35993;52.604;10.078;2023-04-26T09:56:16;101238.03;;;8.43;59.65
50103;BME280;35993;52.604;10.078;2023-04-26T10:01:09;101215.28;;;9.17;57.08
50103;BME280;35993;52.604;10.078;2023-04-26T10:03:36;101212.03;;;9.28;55.63
50103;BME280;35993;52.604;10.078;2023-04-26T10:06:05;101209.53;;;9.27;56.30
50103;BME280;35993;52.604;10.078;2023-04-26T10:08:31;101217.81;;;8.97;55.77
50103;BME280;35993;52.604;10.078;2023-04-26T10:10:57;101226.50;;;8.71;57.20
50103;BME280;35993;52.604;10.078;2023-04-26T10:13:23;101229.69;;;8.59;56.70
50103;BME280;35993;52.604;10.078;2023-04-26T10:15:48;101236.72;;;8.53;56.50
50103;BME280;35993;52.604;10.078;2023-04-26T10:18:14;101234.59;;;8.49;56.93
50103;BME280;35993;52.604;10.078;2023-04-26T10:20:43;101226.16;;;8.44;55.63
50103;BME280;35993;52.604;10.078;2023-04-26T10:23:20;101226.47;;;8.49;55.63
50103;BME280;35993;52.604;10.078;2023-04-26T10:25:47;101230.09;;;8.41;56.90
50103;BME280;35993;52.604;10.078;2023-04-26T10:28:14;101226.00;;;8.45;57.12
50103;BME280;35993;52.604;10.078;2023-04-26T10:30:56;101232.44;;;8.44;57.93
50103;BME280;35993;52.604;10.078;2023-04-26T10:33:24;101220.50;;;8.39;57.62
50103;BME280;35993;52.604;10.078;2023-04-26T10:38:26;101222.09;;;8.69;56.80
50103;BME280;35993;52.604;10.078;2023-04-26T10:40:52;101215.41;;;9.09;56.19
50103;BME280;35993;52.604;10.078;2023-04-26T10:45:48;101200.53;;;9.48;54.85
50103;BME280;35993;52.604;10.078;2023-04-26T10:53:57;101192.09;;;9.36;53.02
50103;BME280;35993;52.604;10.078;2023-04-26T10:58:49;101203.50;;;9.03;53.99
50103;BME280;35993;52.604;10.078;2023-04-26T11:01:31;101210.44;;;9.12;54.99
50103;BME280;35993;52.604;10.078;2023-04-26T11:06:23;101218.91;;;8.81;55.73
50103;BME280;35993;52.604;10.078;2023-04-26T11:08:49;101209.22;;;8.72;56.61
50103;BME280;35993;52.604;10.078;2023-04-26T11:11:15;101225.44;;;8.87;57.15
50103;BME280;35993;52.604;10.078;2023-04-26T11:13:44;101223.28;;;8.82;57.35
50103;BME280;35993;52.604;10.078;2023-04-26T11:16:14;101226.06;;;8.89;58.79
50103;BME280;35993;52.604;10.078;2023-04-26T11:18:41;101220.38;;;8.83;57.38
50103;BME280;35993;52.604;10.078;2023-04-26T11:21:08;101223.31;;;9.32;57.15
50103;BME280;35993;52.604;10.078;2023-04-26T11:23:34;101224.25;;;9.46;56.56
50103;BME280;35993;52.604;10.078;2023-04-26T11:26:03;101199.84;;;9.74;54.89
50103;BME280;35993;52.604;10.078;2023-04-26T11:28:33;101193.31;;;9.62;53.30
50103;BME280;35993;52.604;10.078;2023-04-26T11:30:59;101191.41;;;9.56;52.29
50103;BME280;35993;52.604;10.078;2023-04-26T11:33:25;101192.84;;;9.93;52.34
50103;BME280;35993;52.604;10.078;2023-04-26T11:35:52;101177.72;;;10.12;51.63
50103;BME280;35993;52.604;10.078;2023-04-26T11:38:21;101190.16;;;10.42;53.55
50103;BME280;35993;52.604;10.078;2023-04-26T11:40:58;101173.59;;;10.30;51.08
50103;BME280;35993;52.604;10.078;2023-04-26T11:43:35;101196.41;;;9.94;54.06
50103;BME280;35993;52.604;10.078;2023-04-26T11:46:01;101199.72;;;9.89;54.50
50103;BME280;35993;52.604;10.078;2023-04-26T11:48:28;101191.91;;;9.73;54.89
50103;BME280;35993;52.604;10.078;2023-04-26T11:50:58;101189.81;;;9.40;53.61
50103;BME280;35993;52.604;10.078;2023-04-26T11:53:24;101190.06;;;9.45;53.64
50103;BME280;35993;52.604;10.078;2023-04-26T11:55:50;101193.09;;;9.98;52.14
50103;BME280;35993;52.604;10.078;2023-04-26T11:58:16;101183.91;;;10.41;51.28
50103;BME280;35993;52.604;10.078;2023-04-26T12:00:57;101168.75;;;10.19;48.01
50103;BME280;35993;52.604;10.078;2023-04-26T12:03:28;101182.69;;;10.09;49.64
50103;BME280;35993;52.604;10.078;2023-04-26T12:05:54;101191.00;;;9.94;50.87
50103;BME280;35993;52.604;10.078;2023-04-26T12:08:23;101184.81;;;9.72;51.28
50103;BME280;35993;52.604;10.078;2023-04-26T12:10:50;101206.91;;;9.68;53.41
50103;BME280;35993;52.604;10.078;2023-04-26T12:13:15;101230.34;;;9.48;54.72
50103;BME280;35993;52.604;10.078;2023-04-26T12:15:41;101227.97;;;9.38;55.37
50103;BME280;35993;52.604;10.078;2023-04-26T12:18:09;101235.84;;;9.33;55.81
50103;BME280;35993;52.604;10.078;2023-04-26T12:20:37;101230.47;;;9.40;55.71
50103;BME280;35993;52.604;10.078;2023-04-26T12:23:12;101236.63;;;9.55;55.46
50103;BME280;35993;52.604;10.078;2023-04-26T12:25:39;101234.72;;;9.49;55.72
50103;BME280;35993;52.604;10.078;2023-04-26T12:28:10;101229.38;;;9.34;54.48
50103;BME280;35993;52.604;10.078;2023-04-26T12:30:39;101219.91;;;9.23;54.73
50103;BME280;35993;52.604;10.078;2023-04-26T12:33:05;101225.69;;;9.13;53.53
50103;BME280;35993;52.604;10.078;2023-04-26T12:35:32;101231.97;;;9.21;54.32
50103;BME280;35993;52.604;10.078;2023-04-26T12:37:58;101241.81;;;9.28;55.01
50103;BME280;35993;52.604;10.078;2023-04-26T12:40:26;101239.41;;;9.33;54.95
50103;BME280;35993;52.604;10.078;2023-04-26T12:42:52;101243.94;;;9.55;55.20
50103;BME280;35993;52.604;10.078;2023-04-26T12:45:22;101238.50;;;9.55;54.53
50103;BME280;35993;52.604;10.078;2023-04-26T12:47:48;101237.41;;;10.12;53.72
50103;BME280;35993;52.604;10.078;2023-04-26T12:50:14;101227.56;;;10.46;53.45
50103;BME280;35993;52.604;10.078;2023-04-26T12:52:41;101229.47;;;10.66;53.27
50103;BME280;35993;52.604;10.078;2023-04-26T12:55:08;101233.50;;;10.90;52.88
50103;BME280;35993;52.604;10.078;2023-04-26T12:57:35;101219.72;;;10.92;51.67
50103;BME280;35993;52.604;10.078;2023-04-26T13:00:02;101225.31;;;10.63;52.53
50103;BME280;35993;52.604;10.078;2023-04-26T13:02:28;101227.13;;;10.49;51.98
50103;BME280;35993;52.604;10.078;2023-04-26T13:04:54;101235.00;;;10.31;52.70
50103;BME280;35993;52.604;10.078;2023-04-26T13:07:20;101235.19;;;10.29;52.65
50103;BME280;35993;52.604;10.078;2023-04-26T13:09:46;101225.16;;;10.30;51.69
50103;BME280;35993;52.604;10.078;2023-04-26T13:12:12;101222.44;;;10.30;51.99
50103;BME280;35993;52.604;10.078;2023-04-26T13:14:38;101228.81;;;10.44;52.55
50103;BME280;35993;52.604;10.078;2023-04-26T13:17:04;101221.91;;;10.41;51.17
50103;BME280;35993;52.604;10.078;2023-04-26T13:19:30;101223.97;;;10.39;51.75